Time;durP1;ratioP1;P1;durP2;ratioP2;P2;SDS_P1;SDS_P2;PMS_P1;PMS_P2;Temp;Humidity;BMP_temperature;BMP_pressure;BME280_temperature;BME280_humidity;BME280_pressure;Samples;Min_cycle;Max_cycle;Signal;HPM_P1;HPM_P2
2023/07/20 00:00:25;;;;;;;3.40;2.40;;;17.80;65.10;;;;;;2075805;28;20234;-85
2023/07/20 00:01:26;;;;;;;3.87;2.40;;;17.70;64.90;;;;;;2070653;28;20234;-85
2023/07/20 00:02:27;;;;;;;4.57;2.70;;;17.70;64.10;;;;;;2067407;28;20474;-85
2023/07/20 00:03:28;;;;;;;3.60;1.93;;;17.70;65.30;;;;;;2076181;28;20257;-85
2023/07/20 00:04:28;;;;;;;2.83;2.40;;;17.70;64.60;;;;;;2071399;28;20260;-85
2023/07/20 00:05:29;;;;;;;3.37;2.27;;;17.80;63.80;;;;;;2065989;28;20230;-85
2023/07/20 00:06:30;;;;;;;3.23;2.23;;;17.80;63.80;;;;;;2071821;28;20226;-85
2023/07/20 00:07:30;;;;;;;5.90;2.70;;;17.80;64.30;;;;;;2072318;28;20225;-85
2023/07/20 00:08:31;;;;;;;4.87;2.53;;;17.70;64.90;;;;;;2062925;28;20230;-85
2023/07/20 00:09:32;;;;;;;3.07;2.50;;;17.70;64.20;;;;;;2059341;28;20269;-84
2023/07/20 00:10:33;;;;;;;3.23;2.27;;;17.70;64.90;;;;;;2070522;28;20240;-84
2023/07/20 00:11:37;;;;;;;3.73;2.37;;;17.70;65.10;;;;;;2062654;28;20265;-84
2023/07/20 00:12:38;;;;;;;5.70;2.60;;;17.60;65.40;;;;;;2070540;28;20539;-85
2023/07/20 00:13:40;;;;;;;3.97;2.43;;;17.60;65.20;;;;;;2068434;28;20478;-85
2023/07/20 00:14:41;;;;;;;2.60;2.10;;;17.60;66.20;;;;;;2073250;28;20541;-85
2023/07/20 00:15:42;;;;;;;3.47;2.47;;;17.60;66.30;;;;;;2071741;28;20482;-85
2023/07/20 00:16:43;;;;;;;4.70;2.17;;;17.60;66.00;;;;;;2076583;28;20237;-85
2023/07/20 00:17:44;;;;;;;4.00;2.60;;;17.60;65.80;;;;;;2076149;28;20324;-85
2023/07/20 00:18:45;;;;;;;3.37;2.00;;;17.70;65.80;;;;;;2076657;28;20233;-85
2023/07/20 00:19:46;;;;;;;4.30;2.33;;;17.40;66.60;;;;;;2075502;28;20585;-85
2023/07/20 00:20:47;;;;;;;4.00;2.33;;;17.50;66.90;;;;;;2075374;28;20720;-84
2023/07/20 00:21:48;;;;;;;3.63;2.70;;;17.50;67.00;;;;;;2075956;28;20241;-85
2023/07/20 00:22:50;;;;;;;4.70;2.17;;;17.30;68.00;;;;;;2070004;28;20472;-85
2023/07/20 00:23:51;;;;;;;3.37;2.20;;;17.40;68.40;;;;;;2074647;28;20234;-85
2023/07/20 00:24:52;;;;;;;3.10;2.10;;;17.40;68.10;;;;;;2070681;28;20463;-85
2023/07/20 00:25:54;;;;;;;3.37;2.50;;;17.40;68.10;;;;;;2069399;28;20221;-85
2023/07/20 00:26:54;;;;;;;3.63;2.23;;;17.40;68.80;;;;;;2059482;28;20461;-85
2023/07/20 00:27:55;;;;;;;3.50;2.27;;;17.40;68.60;;;;;;2067268;28;20468;-85
2023/07/20 00:28:56;;;;;;;4.57;2.90;;;17.40;68.90;;;;;;2072712;28;20221;-85
2023/07/20 00:29:56;;;;;;;3.07;2.37;;;17.40;67.70;;;;;;2066581;28;20229;-85
2023/07/20 00:31:00;;;;;;;3.07;2.47;;;17.40;66.50;;;;;;2067318;28;20237;-85
2023/07/20 00:32:00;;;;;;;5.63;2.57;;;17.40;67.10;;;;;;2075721;28;20221;-85
2023/07/20 00:33:01;;;;;;;3.90;2.57;;;17.50;66.60;;;;;;2070753;28;20456;-84
2023/07/20 00:34:02;;;;;;;5.53;2.47;;;17.50;66.70;;;;;;2079687;28;20213;-85
2023/07/20 00:35:03;;;;;;;3.57;2.40;;;17.50;65.00;;;;;;2075048;28;20228;-84
2023/07/20 00:36:04;;;;;;;3.87;2.80;;;17.40;66.10;;;;;;2075150;28;20423;-85
2023/07/20 00:37:05;;;;;;;4.33;2.43;;;17.30;66.90;;;;;;2075501;28;20430;-85
2023/07/20 00:38:06;;;;;;;5.10;2.57;;;17.30;66.80;;;;;;2075513;28;20265;-85
2023/07/20 00:39:06;;;;;;;3.93;2.50;;;17.20;66.40;;;;;;2072636;28;20239;-84
2023/07/20 00:40:07;;;;;;;5.00;2.60;;;17.20;67.00;;;;;;2060790;28;20217;-85
2023/07/20 00:41:08;;;;;;;5.40;3.03;;;17.10;68.80;;;;;;2063878;28;20194;-84
2023/07/20 00:42:09;;;;;;;2.37;2.10;;;16.90;69.40;;;;;;2068213;28;20477;-85
2023/07/20 00:43:10;;;;;;;4.47;2.13;;;16.90;68.60;;;;;;2065690;28;20256;-84
2023/07/20 00:44:11;;;;;;;4.87;2.40;;;16.80;70.30;;;;;;2066041;28;20694;-85
2023/07/20 00:45:11;;;;;;;3.90;2.57;;;16.70;71.30;;;;;;2072235;28;20185;-84
2023/07/20 00:46:13;;;;;;;4.63;2.20;;;16.70;72.10;;;;;;2072699;28;20201;-85
2023/07/20 00:47:14;;;;;;;2.93;2.57;;;16.80;70.30;;;;;;2064531;28;20222;-85
2023/07/20 00:48:15;;;;;;;4.17;2.37;;;16.90;69.30;;;;;;2053990;28;20429;-85
2023/07/20 00:49:16;;;;;;;4.80;2.70;;;17.00;69.50;;;;;;2054306;28;20195;-84
2023/07/20 00:50:17;;;;;;;4.20;2.30;;;17.00;68.50;;;;;;2065749;28;20838;-84
2023/07/20 00:51:19;;;;;;;2.63;2.33;;;17.10;67.80;;;;;;2065566;28;20416;-84
2023/07/20 00:52:23;;;;;;;3.83;2.50;;;17.20;67.20;;;;;;2064243;28;20179;-86
2023/07/20 00:53:24;;;;;;;3.30;2.07;;;17.10;68.10;;;;;;2064900;28;20467;-85
2023/07/20 00:54:25;;;;;;;3.23;2.27;;;17.10;67.80;;;;;;2073160;28;20467;-84
2023/07/20 00:55:27;;;;;;;3.03;2.40;;;17.10;66.90;;;;;;2065260;28;20230;-85
2023/07/20 00:56:28;;;;;;;3.27;2.43;;;17.10;67.00;;;;;;2073490;28;20477;-85
2023/07/20 00:57:30;;;;;;;5.07;2.90;;;17.20;66.90;;;;;;2077990;28;20471;-85
2023/07/20 00:58:30;;;;;;;3.97;2.50;;;17.00;66.90;;;;;;2069358;28;20533;-84
2023/07/20 00:59:31;;;;;;;3.63;2.37;;;17.00;67.20;;;;;;2057175;28;20531;-85
2023/07/20 01:00:32;;;;;;;3.20;2.57;;;17.00;67.10;;;;;;2068575;28;20233;-85
2023/07/20 01:01:33;;;;;;;3.80;2.30;;;17.00;66.90;;;;;;2066885;28;20238;-84
2023/07/20 01:02:34;;;;;;;5.37;2.90;;;17.00;66.90;;;;;;2073130;28;20260;-84
2023/07/20 01:03:34;;;;;;;5.13;2.80;;;17.00;66.20;;;;;;2062432;28;20266;-83
2023/07/20 01:04:36;;;;;;;5.47;2.47;;;16.90;66.50;;;;;;2069975;28;20711;-85
2023/07/20 01:05:55;;;;;;;2.53;2.30;;;16.90;67.40;;;;;;2064878;28;20304;-84
2023/07/20 01:07:14;;;;;;;5.17;2.40;;;17.00;66.70;;;;;;2073319;28;20463;-85
2023/07/20 01:08:44;;;;;;;4.30;2.27;;;17.00;65.60;;;;;;2068666;28;20838;-85
2023/07/20 01:10:10;;;;;;;4.70;2.63;;;17.00;66.00;;;;;;2054229;28;20511;-85
2023/07/20 01:11:24;;;;;;;4.60;2.20;;;17.00;65.50;;;;;;2077951;28;20493;-85
2023/07/20 01:12:35;;;;;;;3.17;2.23;;;17.10;65.50;;;;;;2074557;28;20449;-85
2023/07/20 01:13:37;;;;;;;4.17;2.30;;;17.00;65.80;;;;;;2072788;28;20487;-84
2023/07/20 01:14:38;;;;;;;4.40;2.30;;;17.10;65.70;;;;;;2071887;28;20483;-83
2023/07/20 01:15:39;;;;;;;2.67;2.43;;;17.10;65.40;;;;;;2072264;28;20517;-83
2023/07/20 01:16:39;;;;;;;4.40;2.50;;;17.20;65.70;;;;;;2081575;28;20489;-83
2023/07/20 01:17:40;;;;;;;2.73;2.30;;;17.20;66.30;;;;;;2077501;28;20268;-82
2023/07/20 01:18:41;;;;;;;4.03;2.13;;;17.20;66.70;;;;;;2069294;28;20324;-84
2023/07/20 01:19:42;;;;;;;4.37;2.40;;;17.20;66.30;;;;;;2071643;28;20228;-84
2023/07/20 01:20:42;;;;;;;3.27;2.30;;;17.20;65.10;;;;;;2072435;28;20229;-83
2023/07/20 01:22:30;;;;;;;4.10;2.43;;;17.20;64.80;;;;;;2081131;28;20228;-83
2023/07/20 01:24:13;;;;;;;3.97;2.33;;;17.30;64.30;;;;;;2078529;28;20233;-83
2023/07/20 01:25:50;;;;;;;3.37;2.23;;;17.30;64.00;;;;;;2081444;28;20829;-83
2023/07/20 01:27:49;;;;;;;2.83;2.27;;;17.30;65.30;;;;;;2086713;28;20477;-83
2023/07/20 01:29:23;;;;;;;4.40;2.50;;;17.30;64.80;;;;;;2078491;28;20485;-83
2023/07/20 01:31:13;;;;;;;5.23;2.90;;;17.40;67.10;;;;;;2075528;28;20477;-82
2023/07/20 01:32:16;;;;;;;3.97;2.20;;;17.30;65.30;;;;;;2068096;28;20502;-84
2023/07/20 01:33:19;;;;;;;2.43;1.93;;;17.30;64.20;;;;;;2069487;28;20424;-83
2023/07/20 01:34:23;;;;;;;3.97;2.40;;;17.30;62.80;;;;;;2075237;28;20914;-83
2023/07/20 01:35:29;;;;;;;3.80;2.53;;;17.20;63.60;;;;;;2074139;28;20483;-83
2023/07/20 01:36:34;;;;;;;3.80;2.30;;;17.10;64.10;;;;;;2072220;28;20990;-83
2023/07/20 01:37:35;;;;;;;3.57;2.20;;;17.00;64.80;;;;;;2077382;28;20554;-83
2023/07/20 01:38:37;;;;;;;2.90;2.33;;;17.00;65.70;;;;;;2072780;28;20881;-83
2023/07/20 01:39:38;;;;;;;3.00;2.00;;;17.00;65.50;;;;;;2076584;28;20573;-83
2023/07/20 01:40:41;;;;;;;3.97;2.30;;;17.00;65.70;;;;;;2070599;28;20566;-84
2023/07/20 01:41:42;;;;;;;4.60;2.30;;;17.00;65.70;;;;;;2067103;28;20877;-83
2023/07/20 01:42:47;;;;;;;2.57;2.27;;;17.10;65.60;;;;;;2067406;28;20468;-83
2023/07/20 01:43:48;;;;;;;2.97;2.33;;;17.30;63.90;;;;;;2066231;28;20514;-84
2023/07/20 01:44:52;;;;;;;2.77;2.03;;;17.30;64.80;;;;;;2057454;28;20493;-84
2023/07/20 01:45:53;;;;;;;3.23;1.83;;;17.30;65.40;;;;;;2073946;28;20971;-83
2023/07/20 01:46:53;;;;;;;2.67;2.43;;;17.30;64.00;;;;;;2065161;28;20570;-84
2023/07/20 01:47:54;;;;;;;4.90;2.30;;;17.30;63.10;;;;;;2073543;28;20217;-84
2023/07/20 01:48:55;;;;;;;4.83;2.10;;;17.30;62.70;;;;;;2074594;28;20221;-84
2023/07/20 01:49:56;;;;;;;2.77;2.07;;;17.20;63.00;;;;;;2064313;28;20710;-84
2023/07/20 01:50:56;;;;;;;8.97;2.50;;;17.20;62.60;;;;;;2065637;28;20547;-84
2023/07/20 01:51:57;;;;;;;4.53;2.70;;;17.20;63.10;;;;;;2066952;28;20221;-84
2023/07/20 01:52:58;;;;;;;4.63;2.50;;;17.20;63.60;;;;;;2062842;28;20233;-84
2023/07/20 01:53:59;;;;;;;2.20;1.90;;;17.20;63.00;;;;;;2073206;28;20524;-84
2023/07/20 01:55:00;;;;;;;6.17;2.30;;;17.30;63.70;;;;;;2073265;28;20296;-84
2023/07/20 01:56:01;;;;;;;4.40;2.23;;;17.30;64.90;;;;;;2072858;28;21014;-83
2023/07/20 01:57:02;;;;;;;2.40;2.13;;;17.30;64.10;;;;;;2074619;28;20186;-84
2023/07/20 01:58:03;;;;;;;5.57;2.10;;;17.30;63.00;;;;;;2074231;28;20186;-83
2023/07/20 01:59:04;;;;;;;3.80;2.50;;;17.30;63.30;;;;;;2064340;28;20190;-83
2023/07/20 02:00:06;;;;;;;3.20;2.57;;;17.30;64.00;;;;;;2065471;28;20447;-84
2023/07/20 02:01:07;;;;;;;4.10;2.10;;;17.30;64.40;;;;;;2065496;28;20190;-84
2023/07/20 02:02:08;;;;;;;6.90;1.97;;;17.30;62.20;;;;;;2065433;28;20435;-84
2023/07/20 02:03:09;;;;;;;3.07;2.27;;;17.20;64.00;;;;;;2070123;28;20280;-84
2023/07/20 02:04:09;;;;;;;2.97;2.10;;;17.10;63.70;;;;;;2065400;28;20444;-84
2023/07/20 02:05:10;;;;;;;3.93;2.50;;;17.00;64.60;;;;;;2064755;28;20193;-84
2023/07/20 02:06:11;;;;;;;4.33;2.63;;;17.00;65.90;;;;;;2072382;28;20210;-84
2023/07/20 02:07:11;;;;;;;4.20;2.50;;;16.90;65.10;;;;;;2071006;28;20662;-83
2023/07/20 02:08:12;;;;;;;3.07;2.27;;;16.90;65.00;;;;;;2060661;28;20187;-83
2023/07/20 02:09:13;;;;;;;4.70;2.20;;;16.90;64.60;;;;;;2070043;28;20186;-84
2023/07/20 02:10:13;;;;;;;2.17;1.97;;;16.90;64.60;;;;;;2061670;28;20598;-83
2023/07/20 02:11:14;;;;;;;2.50;2.30;;;16.80;65.70;;;;;;2063571;28;20349;-84
2023/07/20 02:12:15;;;;;;;4.67;2.43;;;17.00;65.80;;;;;;2067671;28;20681;-84
2023/07/20 02:13:16;;;;;;;3.57;2.10;;;16.80;66.60;;;;;;2071858;28;20193;-83
2023/07/20 02:14:16;;;;;;;4.03;2.63;;;16.80;66.70;;;;;;2071724;28;20220;-83
2023/07/20 02:15:18;;;;;;;4.10;2.23;;;16.70;66.80;;;;;;2080259;28;20193;-83
2023/07/20 02:16:19;;;;;;;4.00;2.03;;;16.80;68.40;;;;;;2080512;28;20195;-83
2023/07/20 02:17:20;;;;;;;7.67;2.83;;;16.70;68.20;;;;;;2073553;28;20423;-83
2023/07/20 02:18:20;;;;;;;3.40;2.27;;;16.60;69.40;;;;;;2071768;28;20339;-83
2023/07/20 02:19:21;;;;;;;3.50;2.40;;;16.50;68.70;;;;;;2059493;28;20277;-84
2023/07/20 02:20:22;;;;;;;3.10;2.40;;;16.50;70.00;;;;;;2060510;28;20245;-83
2023/07/20 02:21:22;;;;;;;2.77;2.30;;;16.50;70.50;;;;;;2068530;28;20225;-84
2023/07/20 02:22:24;;;;;;;3.57;2.00;;;16.40;70.10;;;;;;2067880;28;20303;-84
2023/07/20 02:23:25;;;;;;;3.88;2.22;;;16.50;70.90;;;;;;2062415;28;20230;-84
2023/07/20 02:24:25;;;;;;;3.63;1.97;;;16.50;71.00;;;;;;2071714;28;20257;-84
2023/07/20 02:25:26;;;;;;;5.73;2.33;;;16.40;71.90;;;;;;2074201;28;20232;-84
2023/07/20 02:26:28;;;;;;;2.73;2.03;;;16.40;72.00;;;;;;2057112;28;20249;-84
2023/07/20 02:27:29;;;;;;;3.60;2.30;;;16.50;72.60;;;;;;2065524;28;20240;-85
2023/07/20 02:28:30;;;;;;;3.30;2.67;;;16.50;73.20;;;;;;2070717;28;20475;-84
2023/07/20 02:29:30;;;;;;;3.33;2.37;;;16.50;74.00;;;;;;2069461;28;20983;-84
2023/07/20 02:30:31;;;;;;;4.63;2.30;;;16.50;73.80;;;;;;2072439;28;20260;-84
2023/07/20 02:31:32;;;;;;;3.97;2.63;;;16.50;73.80;;;;;;2073809;28;20241;-84
2023/07/20 02:32:33;;;;;;;4.43;2.60;;;16.50;74.00;;;;;;2073939;28;20260;-84
2023/07/20 02:33:34;;;;;;;4.30;2.40;;;16.50;74.10;;;;;;2071989;28;20688;-84
2023/07/20 02:34:35;;;;;;;3.60;2.37;;;16.50;74.00;;;;;;2071048;28;20483;-85
2023/07/20 02:35:36;;;;;;;2.63;2.10;;;16.40;76.30;;;;;;2081260;28;20664;-84
2023/07/20 02:36:37;;;;;;;3.30;2.23;;;16.40;77.80;;;;;;2077792;28;20301;-83
2023/07/20 02:37:38;;;;;;;3.27;2.60;;;16.30;77.20;;;;;;2064806;28;20228;-84
2023/07/20 02:38:38;;;;;;;4.60;2.60;;;16.30;77.50;;;;;;2073664;28;20471;-83
2023/07/20 02:39:40;;;;;;;5.17;2.50;;;16.30;78.40;;;;;;2080422;28;20731;-84
2023/07/20 02:40:40;;;;;;;4.07;2.70;;;16.30;79.40;;;;;;2071217;28;20308;-84
2023/07/20 02:41:41;;;;;;;2.77;2.33;;;16.30;79.40;;;;;;2062397;28;20484;-84
2023/07/20 02:42:42;;;;;;;3.35;2.78;;;16.30;79.20;;;;;;2074336;28;20226;-84
2023/07/20 02:43:43;;;;;;;5.77;2.63;;;16.30;78.60;;;;;;2059397;28;20679;-85
2023/07/20 02:44:44;;;;;;;2.80;2.50;;;16.40;79.30;;;;;;2053562;28;20290;-85
2023/07/20 02:45:45;;;;;;;4.23;2.70;;;16.30;79.60;;;;;;2056428;28;20725;-85
2023/07/20 02:46:45;;;;;;;2.87;2.47;;;16.30;79.40;;;;;;2064882;28;20234;-84
2023/07/20 02:47:46;;;;;;;3.13;2.10;;;16.20;79.60;;;;;;2065915;28;20226;-84
2023/07/20 02:48:47;;;;;;;9.07;2.80;;;16.30;79.70;;;;;;2080536;28;20225;-84
2023/07/20 02:49:48;;;;;;;4.07;2.23;;;16.30;80.20;;;;;;2065273;28;20323;-84
2023/07/20 02:50:48;;;;;;;3.57;2.27;;;16.20;80.70;;;;;;2053294;28;20297;-83
2023/07/20 02:51:49;;;;;;;3.03;2.17;;;16.10;80.60;;;;;;2063937;28;20241;-83
2023/07/20 02:52:50;;;;;;;3.10;2.80;;;16.00;81.50;;;;;;2079897;28;20266;-83
2023/07/20 02:53:50;;;;;;;3.07;1.90;;;15.90;82.40;;;;;;2083439;28;20232;-84
2023/07/20 02:54:51;;;;;;;3.23;2.50;;;15.80;82.80;;;;;;2072704;28;20233;-83
2023/07/20 02:55:52;;;;;;;4.80;2.93;;;15.80;83.80;;;;;;2065208;28;20663;-82
2023/07/20 02:56:53;;;;;;;3.50;2.40;;;15.90;83.80;;;;;;2062142;28;20704;-83
2023/07/20 02:57:54;;;;;;;4.03;2.47;;;15.80;83.70;;;;;;2070098;28;20252;-84
2023/07/20 02:58:54;;;;;;;3.10;2.80;;;15.80;83.30;;;;;;2074134;28;20228;-84
2023/07/20 02:59:55;;;;;;;6.43;2.60;;;15.80;83.20;;;;;;2073675;28;20240;-84
2023/07/20 03:00:56;;;;;;;4.10;2.43;;;15.80;83.30;;;;;;2060604;28;20250;-84
2023/07/20 03:01:57;;;;;;;5.13;2.38;;;16.00;83.20;;;;;;2073179;28;20365;-83
2023/07/20 03:02:58;;;;;;;3.17;2.43;;;16.00;82.70;;;;;;2080886;28;20229;-83
2023/07/20 03:03:58;;;;;;;2.90;2.40;;;16.00;82.00;;;;;;2071791;28;20265;-83
2023/07/20 03:05:00;;;;;;;3.10;2.53;;;16.00;82.10;;;;;;2069346;28;20221;-84
2023/07/20 03:06:02;;;;;;;2.95;2.38;;;15.90;83.00;;;;;;2075721;28;20261;-83
2023/07/20 03:07:05;;;;;;;3.17;2.20;;;16.00;83.10;;;;;;2068613;28;20187;-84
2023/07/20 03:08:06;;;;;;;3.75;2.30;;;16.00;83.40;;;;;;2072919;28;20193;-84
2023/07/20 03:09:06;;;;;;;6.10;2.40;;;15.90;82.40;;;;;;2069363;28;20609;-84
2023/07/20 03:10:09;;;;;;;4.37;2.27;;;16.00;81.80;;;;;;2077563;28;20207;-83
2023/07/20 03:11:09;;;;;;;4.47;2.42;;;16.00;81.80;;;;;;2083700;28;20197;-83
2023/07/20 03:12:10;;;;;;;3.30;2.50;;;16.00;81.40;;;;;;2071053;28;20178;-83
2023/07/20 03:13:12;;;;;;;4.23;2.23;;;16.00;80.80;;;;;;2073076;28;20190;-83
2023/07/20 03:14:13;;;;;;;3.07;2.07;;;16.00;80.70;;;;;;2071924;28;20205;-84
2023/07/20 03:15:14;;;;;;;4.50;2.17;;;16.00;81.00;;;;;;2070857;28;20422;-84
2023/07/20 03:16:18;;;;;;;3.20;2.47;;;15.90;81.60;;;;;;2071765;28;20206;-84
2023/07/20 03:17:20;;;;;;;3.30;2.43;;;15.90;82.20;;;;;;2072968;28;20181;-84
2023/07/20 03:18:21;;;;;;;3.58;2.45;;;16.00;81.90;;;;;;2061749;28;20457;-84
2023/07/20 03:19:21;;;;;;;3.50;2.47;;;16.00;82.20;;;;;;2063176;28;20238;-84
2023/07/20 03:20:22;;;;;;;2.93;2.60;;;16.00;82.70;;;;;;2066165;28;20230;-83
2023/07/20 03:21:23;;;;;;;3.73;2.30;;;16.00;82.60;;;;;;2066224;28;20230;-84
2023/07/20 03:22:24;;;;;;;3.10;2.53;;;16.00;83.00;;;;;;2074787;28;20591;-85
2023/07/20 03:23:26;;;;;;;3.45;2.75;;;16.00;83.00;;;;;;2074288;28;20316;-84
2023/07/20 03:24:27;;;;;;;2.88;2.35;;;15.90;83.20;;;;;;2075141;28;20533;-84
2023/07/20 03:25:27;;;;;;;3.83;2.90;;;16.00;84.00;;;;;;2073782;28;20228;-84
2023/07/20 03:26:28;;;;;;;5.77;2.60;;;15.90;84.30;;;;;;2065863;28;20242;-85
2023/07/20 03:27:29;;;;;;;3.73;2.40;;;15.90;84.30;;;;;;2073407;28;20253;-84
2023/07/20 03:28:29;;;;;;;3.90;2.50;;;15.90;84.50;;;;;;2057485;28;20266;-84
2023/07/20 03:29:32;;;;;;;5.37;2.87;;;15.90;84.30;;;;;;2058192;28;20241;-83
2023/07/20 03:30:34;;;;;;;5.78;2.72;;;15.80;84.50;;;;;;2067862;28;20702;-84
2023/07/20 03:31:35;;;;;;;3.75;2.75;;;15.80;84.80;;;;;;2075298;28;20929;-83
2023/07/20 03:32:36;;;;;;;3.87;2.50;;;15.80;85.40;;;;;;2073810;28;20263;-83
2023/07/20 03:33:37;;;;;;;4.60;2.20;;;15.80;85.90;;;;;;2078442;28;20235;-83
2023/07/20 03:34:37;;;;;;;3.97;2.40;;;15.70;85.90;;;;;;2076054;28;20217;-83
2023/07/20 03:35:38;;;;;;;3.40;2.77;;;15.60;85.80;;;;;;2073731;28;20237;-84
2023/07/20 03:36:39;;;;;;;3.13;2.30;;;15.60;86.60;;;;;;2069746;28;20262;-84
2023/07/20 03:37:39;;;;;;;2.67;2.47;;;15.60;87.10;;;;;;2063041;28;20258;-85
2023/07/20 03:38:40;;;;;;;3.60;2.80;;;15.60;87.20;;;;;;2068771;28;20320;-85
2023/07/20 03:39:41;;;;;;;4.37;2.40;;;15.70;87.40;;;;;;2063557;28;20234;-85
2023/07/20 03:40:51;;;;;;;4.50;2.60;;;15.60;86.80;;;;;;2062578;28;20241;-84
2023/07/20 03:41:51;;;;;;;4.50;2.40;;;15.60;85.60;;;;;;2069139;28;20699;-85
2023/07/20 03:42:52;;;;;;;3.10;2.50;;;15.60;86.00;;;;;;2065496;28;20227;-83
2023/07/20 03:43:53;;;;;;;3.03;2.73;;;15.70;85.30;;;;;;2069190;28;20805;-84
2023/07/20 03:44:53;;;;;;;3.83;2.43;;;15.70;86.10;;;;;;2081262;28;20267;-85
2023/07/20 03:45:56;;;;;;;3.23;2.50;;;15.70;86.50;;;;;;2085780;28;20243;-84
2023/07/20 03:46:57;;;;;;;4.03;2.88;;;15.60;87.30;;;;;;2087916;28;20224;-85
2023/07/20 03:47:58;;;;;;;3.50;2.60;;;15.70;86.80;;;;;;2072955;28;20213;-84
2023/07/20 03:48:58;;;;;;;2.83;2.53;;;15.70;86.80;;;;;;2073967;28;20820;-84
2023/07/20 03:49:59;;;;;;;4.77;2.20;;;15.70;86.40;;;;;;2062206;28;20222;-85
2023/07/20 03:51:00;;;;;;;3.57;2.40;;;15.80;86.60;;;;;;2065301;28;20227;-85
2023/07/20 03:52:03;;;;;;;2.60;2.23;;;15.80;86.70;;;;;;2073875;28;20231;-85
2023/07/20 03:53:03;;;;;;;4.68;2.70;;;15.80;86.80;;;;;;2082983;28;20192;-84
2023/07/20 03:54:04;;;;;;;3.63;2.40;;;15.80;86.40;;;;;;2070630;28;20185;-84
2023/07/20 03:55:05;;;;;;;5.13;2.40;;;15.70;86.30;;;;;;2069838;28;20182;-85
2023/07/20 03:56:06;;;;;;;3.15;2.53;;;15.80;86.30;;;;;;2058672;28;20183;-84
2023/07/20 03:57:07;;;;;;;2.80;2.27;;;15.90;85.90;;;;;;2066851;28;20183;-85
2023/07/20 03:58:08;;;;;;;2.87;2.23;;;15.90;85.70;;;;;;2064017;28;20253;-85
2023/07/20 03:59:08;;;;;;;3.47;2.57;;;15.80;86.40;;;;;;2063085;28;20214;-84
2023/07/20 04:00:12;;;;;;;3.23;2.43;;;15.80;86.80;;;;;;2063328;28;20792;-85
2023/07/20 04:01:13;;;;;;;3.70;2.30;;;15.80;86.90;;;;;;2063468;28;20655;-85
2023/07/20 04:02:13;;;;;;;3.17;2.70;;;15.80;87.90;;;;;;2064092;28;20186;-85
2023/07/20 04:03:14;;;;;;;2.93;2.20;;;15.80;88.20;;;;;;2070954;28;20193;-85
2023/07/20 04:04:17;;;;;;;3.63;2.38;;;15.80;88.40;;;;;;2074626;28;20185;-85
2023/07/20 04:05:17;;;;;;;3.63;2.45;;;15.80;87.90;;;;;;2074857;28;20264;-85
2023/07/20 04:06:18;;;;;;;4.50;2.60;;;15.80;87.10;;;;;;2073115;28;20192;-85
2023/07/20 04:07:19;;;;;;;3.83;2.47;;;15.80;87.20;;;;;;2060307;28;20218;-84
2023/07/20 04:08:19;;;;;;;3.17;2.47;;;15.60;88.30;;;;;;2058604;28;20183;-84
2023/07/20 04:09:20;;;;;;;3.73;2.97;;;15.60;88.30;;;;;;2057070;28;22332;-85
2023/07/20 04:10:21;;;;;;;4.23;2.73;;;15.60;88.70;;;;;;2062902;28;20330;-85
2023/07/20 04:11:21;;;;;;;6.67;3.00;;;15.70;89.10;;;;;;2063068;28;20261;-85
2023/07/20 04:12:22;;;;;;;5.87;3.03;;;15.70;88.50;;;;;;2057749;28;20877;-85
2023/07/20 04:13:23;;;;;;;4.83;3.03;;;15.70;88.50;;;;;;2075541;28;20253;-85
2023/07/20 04:14:23;;;;;;;2.93;2.63;;;15.80;88.50;;;;;;2082324;28;20236;-84
2023/07/20 04:15:24;;;;;;;5.83;2.93;;;15.70;88.50;;;;;;2073331;28;20237;-85
2023/07/20 04:16:27;;;;;;;3.73;2.40;;;15.80;87.70;;;;;;2061547;28;20299;-85
2023/07/20 04:17:27;;;;;;;3.65;2.70;;;15.80;86.60;;;;;;2064827;28;20233;-85
2023/07/20 04:18:28;;;;;;;3.73;2.60;;;15.80;86.90;;;;;;2072281;28;20229;-85
2023/07/20 04:19:29;;;;;;;5.50;2.67;;;15.90;86.30;;;;;;2063661;28;20238;-84
2023/07/20 04:20:29;;;;;;;2.97;2.63;;;15.80;86.10;;;;;;2065794;28;20230;-84
2023/07/20 04:21:30;;;;;;;2.50;2.30;;;15.90;87.60;;;;;;2074624;28;20222;-85
2023/07/20 04:22:31;;;;;;;3.83;2.87;;;15.90;87.30;;;;;;2074120;28;20710;-85
2023/07/20 04:23:32;;;;;;;3.27;2.70;;;15.80;86.50;;;;;;2069796;28;20237;-84
2023/07/20 04:24:32;;;;;;;3.67;2.60;;;15.90;87.00;;;;;;2075757;28;20287;-84
2023/07/20 04:25:38;;;;;;;4.10;2.77;;;16.00;85.90;;;;;;2072146;28;20223;-84
2023/07/20 04:26:39;;;;;;;3.93;2.40;;;15.90;85.00;;;;;;2065193;28;20234;-85
2023/07/20 04:27:40;;;;;;;5.37;2.80;;;16.00;84.80;;;;;;2067113;28;20480;-85
2023/07/20 04:28:42;;;;;;;4.63;2.70;;;16.10;84.80;;;;;;2065619;28;20238;-85
2023/07/20 04:29:43;;;;;;;5.23;2.50;;;16.10;84.30;;;;;;2056749;28;20262;-85
2023/07/20 04:30:43;;;;;;;5.33;2.47;;;16.20;84.70;;;;;;2068353;28;20499;-84
2023/07/20 04:31:44;;;;;;;3.00;2.70;;;16.10;83.80;;;;;;2074244;28;20253;-85
2023/07/20 04:32:46;;;;;;;2.83;2.40;;;16.20;83.30;;;;;;2071000;28;20226;-85
2023/07/20 04:33:47;;;;;;;3.05;2.22;;;16.20;83.20;;;;;;2080164;28;20279;-83
2023/07/20 04:34:47;;;;;;;5.67;2.60;;;16.20;82.70;;;;;;2062957;28;20306;-84
2023/07/20 04:35:53;;;;;;;3.87;2.53;;;16.20;81.50;;;;;;2066992;28;20695;-84
2023/07/20 04:36:54;;;;;;;3.60;2.40;;;16.30;83.20;;;;;;2076404;28;20292;-83
2023/07/20 04:37:55;;;;;;;3.43;2.50;;;16.30;83.30;;;;;;2076657;28;20533;-84
2023/07/20 04:38:55;;;;;;;4.83;2.90;;;16.40;83.10;;;;;;2073996;28;20229;-84
2023/07/20 04:39:56;;;;;;;3.13;2.20;;;16.40;82.70;;;;;;2060763;28;20225;-84
2023/07/20 04:40:57;;;;;;;4.47;2.67;;;16.40;81.80;;;;;;2063550;28;20686;-84
2023/07/20 04:41:58;;;;;;;2.50;2.10;;;16.40;81.70;;;;;;2063618;28;20269;-83
2023/07/20 04:42:58;;;;;;;3.33;2.37;;;16.40;80.90;;;;;;2056030;28;20688;-82
2023/07/20 04:43:59;;;;;;;3.23;2.20;;;16.40;81.50;;;;;;2062703;28;20321;-84
2023/07/20 04:45:00;;;;;;;5.47;2.67;;;16.40;82.30;;;;;;2072499;28;20240;-83
2023/07/20 04:46:00;;;;;;;3.93;2.63;;;16.30;82.10;;;;;;2072280;28;20689;-83
2023/07/20 04:47:02;;;;;;;4.40;2.67;;;16.30;82.80;;;;;;2074806;28;20281;-84
2023/07/20 04:48:04;;;;;;;3.00;2.47;;;16.30;82.60;;;;;;2085665;28;20184;-84
2023/07/20 04:49:05;;;;;;;3.80;2.13;;;16.30;82.50;;;;;;2077180;28;20470;-83
2023/07/20 04:50:06;;;;;;;4.13;2.67;;;16.30;82.10;;;;;;2072091;28;20457;-83
2023/07/20 04:51:07;;;;;;;4.10;2.60;;;16.30;82.40;;;;;;2077171;28;20189;-83
2023/07/20 04:52:08;;;;;;;5.13;2.63;;;16.30;82.40;;;;;;2068142;28;21018;-84
2023/07/20 04:53:12;;;;;;;3.43;2.37;;;16.30;82.50;;;;;;2064696;28;20195;-84
2023/07/20 04:54:13;;;;;;;4.23;3.07;;;16.40;82.50;;;;;;2081269;28;20185;-83
2023/07/20 04:55:14;;;;;;;3.83;2.57;;;16.40;84.50;;;;;;2075147;28;20426;-83
2023/07/20 04:56:14;;;;;;;4.10;2.90;;;16.30;84.50;;;;;;2073171;28;20458;-83
2023/07/20 04:57:15;;;;;;;5.30;3.20;;;16.50;84.60;;;;;;2073023;28;20190;-83
2023/07/20 04:58:17;;;;;;;5.00;2.87;;;16.40;85.50;;;;;;2082416;28;20188;-83
2023/07/20 04:59:17;;;;;;;3.57;2.73;;;16.30;86.80;;;;;;2081579;28;20724;-83
2023/07/20 05:00:19;;;;;;;3.43;2.80;;;16.20;86.20;;;;;;2065376;28;20459;-85
2023/07/20 05:01:20;;;;;;;5.50;3.43;;;16.10;89.50;;;;;;2067025;28;20244;-85
2023/07/20 05:02:21;;;;;;;4.33;2.70;;;16.10;87.90;;;;;;2072906;28;20533;-85
2023/07/20 05:03:21;;;;;;;4.10;2.80;;;16.10;87.80;;;;;;2067298;28;21069;-85
2023/07/20 05:04:22;;;;;;;3.10;2.77;;;16.10;87.10;;;;;;2066371;28;20240;-84
2023/07/20 05:05:23;;;;;;;2.63;2.40;;;16.10;86.10;;;;;;2083989;28;20213;-84
2023/07/20 05:06:24;;;;;;;3.53;3.07;;;16.30;85.10;;;;;;2074588;28;20282;-85
2023/07/20 05:07:24;;;;;;;6.60;3.23;;;16.40;84.90;;;;;;2065778;28;20392;-85
2023/07/20 05:08:25;;;;;;;4.60;2.90;;;16.40;84.30;;;;;;2060555;28;20234;-84
2023/07/20 05:09:25;;;;;;;6.60;2.87;;;16.50;82.60;;;;;;2061878;28;20238;-84
2023/07/20 05:10:26;;;;;;;6.23;2.83;;;16.60;81.50;;;;;;2073263;28;20598;-85
2023/07/20 05:11:27;;;;;;;4.40;3.13;;;16.70;82.50;;;;;;2072135;28;20230;-85
2023/07/20 05:12:28;;;;;;;5.23;3.07;;;16.90;79.90;;;;;;2060515;28;20274;-84
2023/07/20 05:13:28;;;;;;;4.77;2.80;;;17.00;79.30;;;;;;2065869;28;20241;-84
2023/07/20 05:14:29;;;;;;;3.97;2.77;;;16.90;77.60;;;;;;2061241;28;20610;-85
2023/07/20 05:15:29;;;;;;;5.60;2.70;;;17.00;77.10;;;;;;2066480;28;20234;-85
2023/07/20 05:16:30;;;;;;;6.13;3.00;;;16.90;77.00;;;;;;2070430;28;20233;-84
2023/07/20 05:17:31;;;;;;;6.27;3.50;;;17.00;77.10;;;;;;2065129;28;20641;-83
2023/07/20 05:18:31;;;;;;;3.60;2.90;;;17.00;77.10;;;;;;2065302;28;20230;-84
2023/07/20 05:19:32;;;;;;;4.40;3.03;;;17.00;77.30;;;;;;2068419;28;20326;-85
2023/07/20 05:20:35;;;;;;;3.53;2.87;;;17.00;78.00;;;;;;2069259;28;20233;-86
2023/07/20 05:21:35;;;;;;;5.97;3.17;;;17.00;78.30;;;;;;2060211;28;20230;-84
2023/07/20 05:22:39;;;;;;;5.13;2.90;;;17.10;77.10;;;;;;2072155;28;20586;-85
2023/07/20 05:23:40;;;;;;;3.57;2.43;;;17.20;77.90;;;;;;2075745;28;20320;-84
2023/07/20 05:24:40;;;;;;;5.20;2.80;;;17.30;77.00;;;;;;2075278;28;20475;-84